createdAt,value
2022-12-08T00:01:50.642Z,-1.08
2022-12-08T00:04:27.845Z,-1.25
2022-12-08T00:07:15.258Z,-1.14
2022-12-08T00:09:45.789Z,-1.09
2022-12-08T00:12:16.765Z,-1.11
2022-12-08T00:14:47.330Z,-1.00
2022-12-08T00:17:17.835Z,-0.97
2022-12-08T00:19:47.957Z,-1.12
2022-12-08T00:22:16.844Z,-1.13
2022-12-08T00:24:47.886Z,-1.10
2022-12-08T00:27:24.889Z,-1.07
2022-12-08T00:29:55.623Z,-1.16
2022-12-08T00:32:23.883Z,-1.25
2022-12-08T00:34:54.361Z,-1.21
2022-12-08T00:37:22.720Z,-1.24
2022-12-08T00:39:51.258Z,-1.35
2022-12-08T00:42:20.405Z,-1.32
2022-12-08T00:44:49.787Z,-1.36
2022-12-08T00:47:23.460Z,-1.28
2022-12-08T00:49:55.747Z,-1.24
2022-12-08T00:52:23.782Z,-1.12
2022-12-08T00:54:51.797Z,-1.35
2022-12-08T00:57:20.124Z,-1.40
2022-12-08T00:59:49.475Z,-1.33
2022-12-08T01:02:17.547Z,-1.39
2022-12-08T01:04:45.860Z,-1.42
2022-12-08T01:07:15.516Z,-1.45
2022-12-08T01:09:43.570Z,-1.47
2022-12-08T01:12:11.659Z,-1.41
2022-12-08T01:14:39.619Z,-1.38
2022-12-08T01:17:07.735Z,-1.38
2022-12-08T01:19:35.814Z,-1.41
2022-12-08T01:22:03.959Z,-1.39
2022-12-08T01:24:33.513Z,-1.39
2022-12-08T01:27:01.533Z,-1.50
2022-12-08T01:29:29.563Z,-1.45
2022-12-08T01:31:57.621Z,-1.54
2022-12-08T01:34:25.631Z,-1.55
2022-12-08T01:36:53.642Z,-1.59
2022-12-08T01:39:21.828Z,-1.54
2022-12-08T01:41:51.305Z,-1.67
2022-12-08T01:45:04.738Z,-1.64
2022-12-08T01:47:39.115Z,-1.58
2022-12-08T01:50:11.876Z,-1.76
2022-12-08T01:52:44.308Z,-1.62
2022-12-08T01:55:18.085Z,-1.68
2022-12-08T01:57:50.551Z,-1.73
2022-12-08T02:00:21.947Z,-1.79
2022-12-08T02:02:55.816Z,-1.76
2022-12-08T02:05:25.960Z,-1.65
2022-12-08T02:07:55.579Z,-1.66
2022-12-08T02:10:25.413Z,-1.75
2022-12-08T02:12:57.577Z,-1.83
2022-12-08T02:15:33.125Z,-1.97
2022-12-08T02:18:14.905Z,-1.82
2022-12-08T02:20:50.528Z,-1.94
2022-12-08T02:23:26.320Z,-1.80
2022-12-08T02:26:17.519Z,-1.94
2022-12-08T02:29:24.016Z,-1.88
2022-12-08T02:32:06.258Z,-2.04
2022-12-08T02:34:45.339Z,-2.17
2022-12-08T02:37:19.598Z,-2.11
2022-12-08T02:39:55.164Z,-2.25
2022-12-08T02:42:29.068Z,-2.16
2022-12-08T02:44:59.275Z,-2.05
2022-12-08T02:47:29.598Z,-2.18
2022-12-08T02:50:00.181Z,-2.24
2022-12-08T02:52:42.839Z,-1.98
2022-12-08T02:55:16.242Z,-1.98
2022-12-08T02:57:57.913Z,-2.03
2022-12-08T03:00:30.440Z,-1.99
2022-12-08T03:03:10.689Z,-1.81
2022-12-08T03:06:02.739Z,-1.84
2022-12-08T03:08:36.403Z,-2.03
2022-12-08T03:11:10.757Z,-2.10
2022-12-08T03:13:43.502Z,-1.86
2022-12-08T03:16:16.329Z,-1.74
2022-12-08T03:18:49.127Z,-1.84
2022-12-08T03:21:20.693Z,-1.75
2022-12-08T03:23:51.947Z,-1.74
2022-12-08T03:26:24.925Z,-1.74
2022-12-08T03:28:52.993Z,-1.74
2022-12-08T03:31:22.775Z,-1.59
2022-12-08T03:33:53.853Z,-1.60
2022-12-08T03:36:23.703Z,-1.64
2022-12-08T03:38:54.503Z,-1.64
2022-12-08T03:41:23.797Z,-1.68
2022-12-08T03:43:53.659Z,-1.68
2022-12-08T03:48:50.448Z,-1.64
2022-12-08T03:51:18.604Z,-1.63
2022-12-08T03:53:48.329Z,-1.53
2022-12-08T03:56:20.858Z,-2.00
2022-12-08T03:58:48.863Z,-1.50
2022-12-08T04:01:16.871Z,-1.42
2022-12-08T04:03:45.043Z,-1.38
2022-12-08T04:06:13.261Z,-1.38
2022-12-08T04:08:41.401Z,-1.37
2022-12-08T04:11:11.273Z,-1.59
2022-12-08T04:13:41.155Z,-1.63
2022-12-08T04:16:10.356Z,-1.61
2022-12-08T04:18:38.387Z,-1.72
2022-12-08T04:21:06.732Z,-1.44
2022-12-08T04:23:34.726Z,-1.39
2022-12-08T04:26:02.752Z,-1.42
2022-12-08T04:28:32.204Z,-1.37
2022-12-08T04:31:00.519Z,-1.50
2022-12-08T04:33:28.624Z,-1.35
2022-12-08T04:35:56.676Z,-1.40
2022-12-08T04:38:24.788Z,-1.29
2022-12-08T04:40:53.000Z,-1.39
2022-12-08T04:43:21.756Z,-1.36
2022-12-08T04:45:51.174Z,-1.31
2022-12-08T04:48:19.326Z,-1.35
2022-12-08T04:50:47.436Z,-1.43
2022-12-08T04:53:15.991Z,-1.36
2022-12-08T04:55:45.522Z,-1.31
2022-12-08T04:58:14.956Z,-1.39
2022-12-08T05:00:43.209Z,-1.31
2022-12-08T05:03:12.834Z,-1.51
2022-12-08T05:05:40.888Z,-1.37
2022-12-08T05:08:09.705Z,-1.46
2022-12-08T05:10:38.039Z,-1.56
2022-12-08T05:13:06.037Z,-1.42
2022-12-08T05:15:34.066Z,-1.62
2022-12-08T05:18:02.063Z,-1.61
2022-12-08T05:20:31.455Z,-1.62
2022-12-08T05:22:59.453Z,-1.71
2022-12-08T05:25:27.495Z,-1.72
2022-12-08T05:28:17.509Z,-1.78
2022-12-08T05:30:43.463Z,-1.88
2022-12-08T05:33:11.509Z,-1.69
2022-12-08T05:35:41.109Z,-1.69
2022-12-08T05:38:09.591Z,-1.71
2022-12-08T05:40:39.608Z,-1.67
2022-12-08T05:43:09.036Z,-1.65
2022-12-08T05:45:37.336Z,-2.19
2022-12-08T05:48:06.112Z,-1.73
2022-12-08T05:50:35.324Z,-1.67
2022-12-08T05:53:06.670Z,-1.76
2022-12-08T05:55:34.714Z,-1.86
2022-12-08T05:58:07.596Z,-1.83
2022-12-08T06:00:36.187Z,-1.79
2022-12-08T06:03:04.570Z,-2.24
2022-12-08T06:05:34.355Z,-2.09
2022-12-08T06:08:02.526Z,-2.16
2022-12-08T06:10:32.099Z,-2.01
2022-12-08T06:13:00.447Z,-2.12
2022-12-08T06:15:28.727Z,-2.13
2022-12-08T06:17:56.891Z,-2.01
2022-12-08T06:20:24.984Z,-2.19
2022-12-08T06:22:53.336Z,-2.37
2022-12-08T06:25:22.142Z,-2.33
2022-12-08T06:27:51.872Z,-2.30
2022-12-08T06:30:20.168Z,-2.37
2022-12-08T06:32:48.185Z,-2.70
2022-12-08T06:35:16.164Z,-2.83
2022-12-08T06:37:44.172Z,-2.58
2022-12-08T06:40:12.976Z,-2.59
2022-12-08T06:42:47.257Z,-2.40
2022-12-08T06:45:18.339Z,-2.29
2022-12-08T06:47:46.359Z,-2.16
2022-12-08T06:50:14.970Z,-2.25
2022-12-08T06:52:54.272Z,-2.25
2022-12-08T06:55:58.806Z,-2.48
2022-12-08T06:58:17.081Z,-2.35
2022-12-08T07:00:46.820Z,-2.37
2022-12-08T07:03:15.368Z,-2.46
2022-12-08T07:05:46.431Z,-2.44
2022-12-08T07:08:14.655Z,-2.49
2022-12-08T07:10:42.828Z,-2.45
2022-12-08T07:13:11.025Z,-2.44
2022-12-08T07:15:39.055Z,-2.30
2022-12-08T07:18:08.622Z,-2.13
2022-12-08T07:20:38.770Z,-2.09
2022-12-08T07:23:11.094Z,-2.70
2022-12-08T07:25:39.258Z,-2.51
2022-12-08T07:28:11.251Z,-2.27
2022-12-08T07:30:39.905Z,-2.37
2022-12-08T07:33:10.558Z,-2.56
2022-12-08T07:35:38.702Z,-2.35
2022-12-08T07:38:06.755Z,-2.30
2022-12-08T07:40:34.764Z,-2.24
2022-12-08T07:43:03.027Z,-2.33
2022-12-08T07:45:57.040Z,-2.54
2022-12-08T07:48:35.914Z,-2.83
2022-12-08T07:54:31.039Z,-2.39
2022-12-08T07:57:01.923Z,-2.38
2022-12-08T07:59:29.913Z,-2.36
2022-12-08T08:02:21.378Z,-2.20
2022-12-08T08:04:51.418Z,-2.33
2022-12-08T08:07:19.594Z,-2.34
2022-12-08T08:09:47.590Z,-2.34
2022-12-08T08:12:32.297Z,-2.45
2022-12-08T08:15:01.183Z,-2.47
2022-12-08T08:17:29.742Z,-2.55
2022-12-08T08:19:59.469Z,-2.44
2022-12-08T08:22:28.094Z,-2.25
2022-12-08T08:25:39.278Z,-2.11
2022-12-08T08:28:07.358Z,-2.11
2022-12-08T08:30:35.331Z,-1.97
2022-12-08T08:33:03.365Z,-1.88
2022-12-08T08:35:32.802Z,-2.23
2022-12-08T08:38:00.851Z,-2.06
2022-12-08T08:40:28.822Z,-1.91
2022-12-08T08:42:56.866Z,-1.87
2022-12-08T08:45:24.831Z,-1.81
2022-12-08T08:47:52.848Z,-1.74
2022-12-08T08:50:37.170Z,-1.88
2022-12-08T08:53:07.106Z,-1.92
2022-12-08T08:55:35.091Z,-2.25
2022-12-08T08:58:03.108Z,-2.08
2022-12-08T09:00:31.077Z,-2.07
2022-12-08T09:02:59.105Z,-1.90
2022-12-08T09:05:27.195Z,-1.62
2022-12-08T09:15:38.516Z,-2.12
2022-12-08T09:18:07.805Z,-1.77
2022-12-08T09:20:36.467Z,-1.79
2022-12-08T09:23:04.527Z,-1.91
2022-12-08T09:25:32.588Z,-1.63
2022-12-08T09:28:02.088Z,-1.50
2022-12-08T09:30:30.176Z,-1.34
2022-12-08T09:32:58.221Z,-1.42
2022-12-08T09:35:26.438Z,-1.46
2022-12-08T09:37:54.554Z,-1.25
2022-12-08T09:40:25.130Z,-1.28
2022-12-08T09:42:58.797Z,-1.20
2022-12-08T09:45:34.486Z,-1.13
2022-12-08T09:48:07.809Z,-1.35
2022-12-08T09:50:40.293Z,-1.35
2022-12-08T09:53:14.815Z,-1.45
2022-12-08T09:55:45.952Z,-1.67
2022-12-08T09:58:22.927Z,-1.71
2022-12-08T10:00:52.346Z,-1.57
2022-12-08T10:03:23.325Z,-1.32
2022-12-08T10:05:58.212Z,-1.47
2022-12-08T10:08:30.460Z,-1.44
2022-12-08T10:11:01.824Z,-1.48
2022-12-08T10:13:40.003Z,-1.30
2022-12-08T10:16:26.714Z,-1.32
2022-12-08T10:19:10.505Z,-1.09
2022-12-08T10:21:40.751Z,-1.04
2022-12-08T10:24:17.482Z,-1.29
2022-12-08T10:26:46.904Z,-1.12
2022-12-08T10:29:37.967Z,-0.88
2022-12-08T10:32:16.730Z,-1.05
2022-12-08T10:35:01.396Z,-0.85
2022-12-08T10:37:29.536Z,-0.64
2022-12-08T10:40:02.850Z,-0.63
2022-12-08T10:42:37.339Z,-0.58
2022-12-08T10:45:24.165Z,-0.72
2022-12-08T10:48:01.796Z,-1.13
2022-12-08T10:50:33.230Z,-0.71
2022-12-08T10:53:03.408Z,-0.71
2022-12-08T10:55:42.186Z,-0.88
2022-12-08T10:58:25.922Z,-0.80
2022-12-08T11:00:56.492Z,-0.48
2022-12-08T11:03:29.678Z,-0.46
2022-12-08T11:06:02.812Z,-0.25
2022-12-08T11:08:33.634Z,-0.39
2022-12-08T11:11:01.722Z,-0.85
2022-12-08T11:13:30.175Z,-0.87
2022-12-08T11:15:58.803Z,-0.80
2022-12-08T11:18:30.805Z,-0.53
2022-12-08T11:21:01.966Z,-0.25
2022-12-08T11:23:31.505Z,-0.30
2022-12-08T11:26:06.281Z,-0.49
2022-12-08T11:28:34.475Z,-0.31
2022-12-08T11:31:13.287Z,-0.59
2022-12-08T11:33:45.486Z,-0.90
2022-12-08T11:36:16.981Z,-0.65
2022-12-08T11:38:50.560Z,-0.57
2022-12-08T11:41:21.295Z,-0.39
2022-12-08T11:43:56.880Z,-0.23
2022-12-08T11:46:27.625Z,-0.42
2022-12-08T11:49:06.699Z,-1.04
2022-12-08T11:51:38.200Z,-0.69
2022-12-08T11:54:23.444Z,-0.58
2022-12-08T11:56:55.048Z,-0.61
2022-12-08T11:59:29.700Z,-0.69
2022-12-08T12:01:59.475Z,-1.12
2022-12-08T12:04:34.318Z,-0.86
2022-12-08T12:07:38.938Z,-0.43
2022-12-08T12:10:29.080Z,-0.33
2022-12-08T12:13:15.267Z,-0.56
2022-12-08T12:16:16.345Z,-0.47
2022-12-08T12:18:48.455Z,-0.59
2022-12-08T12:21:22.936Z,-0.52
2022-12-08T12:23:55.681Z,-0.54
2022-12-08T12:26:26.195Z,-0.43
2022-12-08T12:28:58.120Z,-0.36
2022-12-08T12:31:30.302Z,-0.56
2022-12-08T12:34:08.249Z,-0.33
2022-12-08T12:36:49.545Z,-0.29
2022-12-08T12:39:21.326Z,-0.32
2022-12-08T12:41:53.248Z,-0.28
2022-12-08T12:44:38.815Z,-0.22
2022-12-08T12:47:12.328Z,-0.14
2022-12-08T12:50:08.346Z,-0.16
2022-12-08T12:52:43.072Z,-0.15
2022-12-08T12:55:46.114Z,0.10
2022-12-08T12:58:24.705Z,0.12
2022-12-08T13:01:30.322Z,0.02
2022-12-08T13:04:07.265Z,0.04
2022-12-08T13:06:39.558Z,0.04
2022-12-08T13:09:21.501Z,-0.01
2022-12-08T13:11:54.388Z,-0.16
2022-12-08T13:14:37.251Z,0.00
2022-12-08T13:17:11.689Z,0.17
2022-12-08T13:19:41.507Z,0.26
2022-12-08T13:22:46.677Z,0.40
2022-12-08T13:25:48.249Z,0.34
2022-12-08T13:28:25.336Z,0.24
2022-12-08T13:30:54.902Z,0.42
2022-12-08T13:33:32.180Z,0.21
2022-12-08T13:36:19.831Z,0.16
2022-12-08T13:38:49.337Z,0.14
2022-12-08T13:41:23.697Z,0.40
2022-12-08T13:44:50.341Z,0.33
2022-12-08T13:47:25.106Z,0.40
2022-12-08T13:58:19.859Z,1.22
2022-12-08T14:01:01.707Z,1.45
2022-12-08T14:03:30.082Z,1.77
2022-12-08T14:06:13.867Z,1.39
2022-12-08T14:09:00.310Z,1.54
2022-12-08T14:11:35.515Z,1.70
2022-12-08T14:14:09.645Z,2.00
2022-12-08T14:16:40.800Z,1.71
2022-12-08T14:19:18.835Z,1.70
2022-12-08T14:21:55.719Z,1.77
2022-12-08T14:24:24.319Z,1.80
2022-12-08T14:26:55.195Z,1.73
2022-12-08T14:29:44.039Z,1.65
2022-12-08T14:32:25.637Z,1.67
2022-12-08T14:35:00.317Z,1.61
2022-12-08T14:37:32.117Z,1.56
2022-12-08T14:40:04.070Z,1.48
2022-12-08T14:42:32.406Z,1.46
2022-12-08T14:45:06.986Z,1.43
2022-12-08T14:47:35.958Z,1.22
2022-12-08T14:50:06.145Z,1.24
2022-12-08T14:52:34.436Z,1.00
2022-12-08T14:55:02.530Z,0.80
2022-12-08T14:57:36.440Z,0.81
2022-12-08T15:00:20.440Z,0.88
2022-12-08T15:02:48.548Z,0.83
2022-12-08T15:05:19.688Z,0.72
2022-12-08T15:07:50.252Z,0.79
2022-12-08T15:10:24.904Z,0.40
2022-12-08T15:13:05.923Z,0.66
2022-12-08T15:15:48.592Z,0.52
2022-12-08T15:18:18.984Z,0.42
2022-12-08T15:20:50.146Z,0.35
2022-12-08T15:23:26.105Z,0.25
2022-12-08T15:25:54.462Z,0.24
2022-12-08T15:28:29.403Z,0.27
2022-12-08T15:30:59.940Z,0.27
2022-12-08T15:33:28.840Z,0.29
2022-12-08T15:35:56.831Z,0.29
2022-12-08T15:38:26.911Z,-0.02
2022-12-08T15:40:59.012Z,0.10
2022-12-08T15:43:27.224Z,-0.06
2022-12-08T15:45:59.909Z,-0.08
2022-12-08T15:48:31.548Z,-0.29
2022-12-08T15:51:00.024Z,-0.23
2022-12-08T15:53:30.390Z,-0.31
2022-12-08T15:58:57.828Z,-0.30
2022-12-08T16:01:27.068Z,-0.36
2022-12-08T16:09:39.629Z,-0.38
2022-12-08T16:13:13.428Z,-0.45
2022-12-08T16:18:16.654Z,-0.50
2022-12-08T16:23:43.023Z,-0.75
2022-12-08T16:26:35.613Z,-0.69
2022-12-08T16:29:01.993Z,-0.70
2022-12-08T16:31:30.553Z,-0.88
2022-12-08T16:33:59.010Z,-0.91
2022-12-08T16:36:28.451Z,-0.91
2022-12-08T16:38:56.479Z,-0.98
2022-12-08T16:41:42.305Z,-0.88
2022-12-08T16:44:10.389Z,-0.89
2022-12-08T16:46:38.448Z,-0.95
2022-12-08T16:49:10.212Z,-0.98
2022-12-08T16:51:39.745Z,-0.89
2022-12-08T16:54:07.765Z,-0.91
2022-12-08T16:56:36.117Z,-1.04
2022-12-08T16:59:21.076Z,-1.38
2022-12-08T17:01:49.184Z,-1.39
2022-12-08T17:04:32.895Z,-1.49
2022-12-08T17:07:02.467Z,-1.36
2022-12-08T17:09:32.634Z,-1.31
2022-12-08T17:12:03.966Z,-1.88
2022-12-08T17:14:36.431Z,-1.73
2022-12-08T17:17:05.393Z,-1.91
2022-12-08T17:19:38.341Z,-1.81
2022-12-08T17:22:09.430Z,-1.82
2022-12-08T17:24:38.547Z,-1.90
2022-12-08T17:27:07.477Z,-1.79
2022-12-08T17:29:38.294Z,-2.14
2022-12-08T17:32:07.592Z,-2.17
2022-12-08T17:34:36.040Z,-2.17
2022-12-08T17:37:05.323Z,-2.06
2022-12-08T17:39:35.931Z,-2.57
2022-12-08T17:42:04.433Z,-2.02
2022-12-08T17:44:33.623Z,-2.12
2022-12-08T17:47:03.643Z,-2.35
2022-12-08T17:49:35.177Z,-2.13
2022-12-08T17:52:07.091Z,-2.14
2022-12-08T17:54:40.851Z,-2.13
2022-12-08T17:57:09.352Z,-2.27
2022-12-08T17:59:37.572Z,-1.96
2022-12-08T18:02:06.377Z,-2.53
2022-12-08T18:04:35.067Z,-2.29
2022-12-08T18:07:04.926Z,-2.27
2022-12-08T18:09:33.963Z,-2.23
2022-12-08T18:12:03.980Z,-2.18
2022-12-08T18:14:32.483Z,-2.29
2022-12-08T18:17:01.446Z,-2.12
2022-12-08T18:19:30.413Z,-2.44
2022-12-08T18:21:58.987Z,-2.34
2022-12-08T18:24:27.009Z,-2.49
2022-12-08T18:26:56.327Z,-2.71
2022-12-08T18:29:26.589Z,-2.72
2022-12-08T18:31:54.724Z,-2.89
2022-12-08T18:34:22.698Z,-2.73
2022-12-08T18:36:50.712Z,-2.63
2022-12-08T18:39:23.428Z,-2.44
2022-12-08T18:41:51.580Z,-2.68
2022-12-08T18:44:19.765Z,-2.70
2022-12-08T18:46:50.157Z,-2.69
2022-12-08T18:49:22.929Z,-2.35
2022-12-08T18:51:51.004Z,-2.23
2022-12-08T18:54:22.091Z,-2.29
2022-12-08T18:56:56.622Z,-2.13
2022-12-08T18:59:24.643Z,-2.33
2022-12-08T19:01:54.195Z,-2.38
2022-12-08T19:04:29.875Z,-2.27
2022-12-08T19:06:59.172Z,-2.53
2022-12-08T19:09:29.152Z,-2.39
2022-12-08T19:11:58.442Z,-2.41
2022-12-08T19:14:28.428Z,-2.40
2022-12-08T19:16:58.860Z,-2.23
2022-12-08T19:19:27.779Z,-2.30
2022-12-08T19:21:56.340Z,-2.47
2022-12-08T19:24:24.624Z,-2.85
2022-12-08T19:26:52.739Z,-2.62
2022-12-08T19:29:20.778Z,-2.50
2022-12-08T19:31:49.050Z,-2.54
2022-12-08T19:34:18.572Z,-2.59
2022-12-08T19:36:46.677Z,-2.66
2022-12-08T19:39:37.224Z,-2.51
2022-12-08T19:42:24.571Z,-2.68
2022-12-08T19:44:55.199Z,-2.96
2022-12-08T19:47:25.052Z,-2.58
2022-12-08T19:50:15.303Z,-2.93
2022-12-08T19:52:43.522Z,-3.29
2022-12-08T19:55:11.873Z,-3.90
2022-12-08T19:57:39.921Z,-3.72
2022-12-08T20:00:10.436Z,-3.07
2022-12-08T20:02:38.866Z,-3.24
2022-12-08T20:05:09.861Z,-3.19
2022-12-08T20:07:38.248Z,-3.39
2022-12-08T20:10:09.490Z,-3.16
2022-12-08T20:12:39.092Z,-3.27
2022-12-08T20:15:09.878Z,-2.99
2022-12-08T20:17:38.049Z,-3.20
2022-12-08T20:20:09.883Z,-3.12
2022-12-08T20:22:38.288Z,-3.10
2022-12-08T20:25:06.908Z,-3.28
2022-12-08T20:27:34.910Z,-3.10
2022-12-08T20:30:03.048Z,-3.32
2022-12-08T20:32:31.333Z,-3.05
2022-12-08T20:35:00.778Z,-3.11
2022-12-08T20:37:30.360Z,-3.12
2022-12-08T20:39:58.493Z,-3.06
2022-12-08T20:42:26.595Z,-3.06
2022-12-08T20:44:54.583Z,-3.02
2022-12-08T20:47:22.697Z,-3.17
2022-12-08T20:49:51.776Z,-3.19
2022-12-08T20:52:19.906Z,-3.31
2022-12-08T20:54:49.645Z,-3.20
2022-12-08T20:57:17.800Z,-3.07
2022-12-08T20:59:46.088Z,-3.25
2022-12-08T21:02:14.197Z,-3.11
2022-12-08T21:04:42.459Z,-3.09
2022-12-08T21:07:10.980Z,-2.94
2022-12-08T21:09:39.325Z,-3.06
2022-12-08T21:12:09.081Z,-3.37
2022-12-08T21:14:37.951Z,-3.30
2022-12-08T21:17:06.152Z,-3.14
2022-12-08T21:19:34.383Z,-2.87
2022-12-08T21:22:02.480Z,-2.78
2022-12-08T21:24:34.427Z,-3.32
2022-12-08T21:27:03.268Z,-3.25
2022-12-08T21:29:32.784Z,-3.27
2022-12-08T21:32:01.333Z,-3.17
2022-12-08T21:34:34.244Z,-3.49
2022-12-08T21:37:02.788Z,-3.07
2022-12-08T21:39:31.129Z,-3.31
2022-12-08T21:42:17.994Z,-3.27
2022-12-08T21:44:49.932Z,-2.88
2022-12-08T21:47:18.136Z,-2.91
2022-12-08T21:49:47.136Z,-2.88
2022-12-08T21:52:15.704Z,-3.16
2022-12-08T21:54:45.531Z,-3.03
2022-12-08T21:57:15.950Z,-2.91
2022-12-08T21:59:44.095Z,-2.80
2022-12-08T22:02:19.582Z,-2.96
2022-12-08T22:04:50.880Z,-2.80
2022-12-08T22:07:21.105Z,-2.84
2022-12-08T22:09:49.445Z,-2.87
2022-12-08T22:12:18.710Z,-3.06
2022-12-08T22:15:18.003Z,-3.19
2022-12-08T22:17:47.725Z,-3.10
2022-12-08T22:20:17.250Z,-2.87
2022-12-08T22:22:46.047Z,-2.79
2022-12-08T22:25:14.536Z,-2.75
2022-12-08T22:27:44.376Z,-2.87
2022-12-08T22:30:18.143Z,-3.11
2022-12-08T22:32:49.222Z,-2.99
2022-12-08T22:35:18.690Z,-2.85
2022-12-08T22:37:52.101Z,-2.77
2022-12-08T22:40:24.201Z,-2.63
2022-12-08T22:42:56.233Z,-2.71
2022-12-08T22:45:28.598Z,-2.65
2022-12-08T22:48:07.878Z,-2.78
2022-12-08T22:50:39.658Z,-2.88
2022-12-08T22:53:09.316Z,-3.05
2022-12-08T22:55:45.245Z,-3.16
2022-12-08T22:58:21.996Z,-2.92
2022-12-08T23:03:40.965Z,-2.98
2022-12-08T23:06:13.487Z,-2.61
2022-12-08T23:08:43.096Z,-2.83
2022-12-08T23:11:14.437Z,-2.91
2022-12-08T23:13:42.720Z,-2.98
2022-12-08T23:16:12.590Z,-2.97
2022-12-08T23:18:44.969Z,-3.06
2022-12-08T23:21:15.729Z,-3.05
2022-12-08T23:23:46.905Z,-2.97
2022-12-08T23:26:23.358Z,-2.85
2022-12-08T23:28:52.305Z,-2.82
2022-12-08T23:31:21.000Z,-2.79
2022-12-08T23:33:50.700Z,-2.80
2022-12-08T23:36:22.063Z,-2.71
2022-12-08T23:38:54.431Z,-2.78
2022-12-08T23:44:09.261Z,-3.08
2022-12-08T23:46:37.390Z,-2.89
2022-12-08T23:49:07.739Z,-2.97
2022-12-08T23:51:35.946Z,-2.90
2022-12-08T23:54:07.555Z,-2.99
2022-12-08T23:56:35.842Z,-3.35
2022-12-08T23:59:04.195Z,-3.42
